»·PEaware :: UAL241 KPDX-KSEA

UAL241 :: KPDX-KSEA

FLIGHT INFORMATION

Flight Status: Arrived
Operator:
United Airlines
More flights by this operator :: More flights under this callsign
Pilot: Ryan H. (12491)
Aircraft: BOEING 737-800
(B738)
More flights by this aircraft type
Origin: KPDX Portland Intl
United States
Destination: KSEA Seattle-Tacoma Intl
United States
More flights between these airports :: More routes between these airports
Route: +COUGA KRIEG HAWKZ6
File this flight plan on PilotEdge
Remarks:
Altitude:
(Current/Filed)
22,000ft
Speed:
(Current/Filed)
450kts
Departed: 20-Dec-17 08:06 PM
Arrived: 20-Dec-17 08:34 PM
Distance/Time
Traveled:
112nm/0:28
Distance/Time
To Go:
Arrived

Flight Plot

Page will automatically refresh every two minutes.

Flight plan parsing failed; only flown route is shown


Map Options




Map Legend


Flown Route
Filed Route
Departure Airport
Arrival Airport
Navaid (VOR, NDB)
Fix

Horizontal Profiles

Position Reports

Time Latitude Longitude Heading Altitude Ground
Speed
20-Dec-17 19:47 45.589295 -122.597982 30 27ft 0kts
20-Dec-17 19:48 45.589295 -122.597982 30 27ft 0kts
20-Dec-17 19:49 45.589295 -122.597982 30 27ft 0kts
20-Dec-17 19:50 45.589295 -122.597982 30 27ft 0kts
20-Dec-17 19:51 45.589295 -122.597982 30 27ft 0kts
20-Dec-17 19:52 45.589295 -122.597982 30 27ft 0kts
20-Dec-17 19:53 45.589295 -122.597982 30 27ft 0kts
20-Dec-17 19:54 45.589295 -122.597982 30 27ft 0kts
20-Dec-17 19:55 45.589295 -122.597982 30 27ft 0kts
20-Dec-17 19:56 45.589295 -122.597982 30 27ft 0kts
20-Dec-17 19:57 45.589295 -122.597982 30 27ft 0kts
20-Dec-17 19:58 45.589295 -122.597982 30 27ft 0kts
20-Dec-17 19:59 45.589295 -122.597982 30 27ft 0kts
20-Dec-17 20:00 45.589295 -122.597982 30 27ft 0kts
20-Dec-17 20:01 45.589295 -122.597982 30 27ft 0kts
20-Dec-17 20:02 45.589295 -122.597982 30 27ft 0kts
20-Dec-17 20:03 45.589295 -122.597982 30 27ft 0kts
20-Dec-17 20:04 45.589295 -122.597982 30 27ft 0kts
20-Dec-17 20:05 45.589260 -122.598011 30 27ft 1kts
20-Dec-17 20:06 45.588713 -122.598496 36 27ft 2kts
20-Dec-17 20:07 45.588582 -122.599159 118 27ft 2kts
20-Dec-17 20:08 45.588637 -122.599300 118 27ft 0kts
20-Dec-17 20:09 45.588636 -122.599299 118 27ft 0kts
20-Dec-17 20:10 45.583962 -122.589185 119 27ft 39kts
20-Dec-17 20:11 45.581286 -122.583566 206 27ft 0kts
20-Dec-17 20:12 45.581789 -122.587133 298 27ft 69kts
20-Dec-17 20:13 45.602493 -122.638484 300 2488ft 176kts
20-Dec-17 20:14 45.642386 -122.682770 357 5609ft 216kts
20-Dec-17 20:15 45.708700 -122.681503 1 8517ft 259kts
20-Dec-17 20:16 45.787304 -122.680572 1 11716ft 293kts
20-Dec-17 20:17 45.873647 -122.679509 1 14576ft 335kts
20-Dec-17 20:18 45.970319 -122.678424 1 17634ft 356kts
20-Dec-17 20:19 46.071167 -122.677223 1 20500ft 369kts
20-Dec-17 20:20 46.173968 -122.692869 352 22428ft 375kts
20-Dec-17 20:21 46.278060 -122.713950 353 22483ft 379kts
20-Dec-17 20:22 46.383333 -122.725549 0 22479ft 379kts
20-Dec-17 20:23 46.485494 -122.728150 359 20532ft 349kts
20-Dec-17 20:24 46.575756 -122.731473 0 18304ft 299kts
20-Dec-17 20:25 46.654677 -122.734272 0 16006ft 277kts
20-Dec-17 20:26 46.731111 -122.737014 0 13293ft 277kts
20-Dec-17 20:27 46.802917 -122.717777 38 11939ft 272kts
20-Dec-17 20:28 46.858960 -122.649199 39 11153ft 248kts
20-Dec-17 20:29 46.909248 -122.578987 41 9300ft 269kts
20-Dec-17 20:30 46.960470 -122.501913 43 8184ft 260kts
20-Dec-17 20:31 47.016400 -122.439015 27 7183ft 258kts
20-Dec-17 20:32 47.076313 -122.389027 28 6135ft 232kts
20-Dec-17 20:33 47.125751 -122.347292 28 5960ft 231kts
20-Dec-17 20:34 47.181274 -122.310506 2 4881ft 206kts
20-Dec-17 20:35 47.237277 -122.309700 0 3935ft 202kts
20-Dec-17 20:36 47.286766 -122.309270 0 3061ft 198kts
20-Dec-17 20:37 47.339379 -122.308822 1 2102ft 157kts
20-Dec-17 20:38 47.380601 -122.308321 2 1386ft 150kts
20-Dec-17 20:39 47.420968 -122.308072 2 678ft 138kts
20-Dec-17 20:40 47.445836 -122.307439 75 442ft 8kts
20-Dec-17 20:41 47.446781 -122.306212 359 442ft 13kts
20-Dec-17 20:42 47.447028 -122.302381 132 442ft 13kts
20-Dec-17 20:43 47.446260 -122.302443 288 442ft 9kts
20-Dec-17 20:44 47.446292 -122.303227 270 442ft 0kts

Navigation Log

Ident Type
Flight plan parsing failed, navigation log unavailable